Star Alliance - VOML Airport Info

    VOML (Mangalore International Airport)  Login to use Map Selector

  ALLIANCE AIRCRAFT AT THIS AIRPORT
Tail Number Aircraft ModelFlightsRunwayRangeCapacityPaxSale
VT-QHUBombardier CL-415 03500ft1940nm10618Kg10Yes
  RUNWAY INFORMATION    |    Airport Elevation : 337ft    |    LAT : 12.9612998962  /  LON : 74.8900985718
Runway Number 09 / 27 Runway Width 150' Runway Length 5300'
Lighted Runway Yes Runway StatusOpen Runway Surface Asphalt
  CLOSE ALTERNATE AIRPORTS
ICAODistanceAirport NameLongest RWRW SurfaceMAP
VO0Z108NMHarihar4893FTAsphalt
  AIRPORT WEATHER
77°F | 25°C
Temperature
94%
Humidity
29.79" | 0mb
Pressure
1sm
Visibility
IFR
Flight Rules
FEW @ 1200ft
Initial Clouds
TS BR
Conditions
Wind Info
11/27/22 18:30Z
Updated

VOML 271830Z 15003KT 1800 TS BR FEW012 FEW025CB BKN080 25/24 Q1009 NOSIG
  AIRPORT FREQUENCIES
NameFrequency
GROUND122.100
TOWER122.100
APPROACH122.100
DEPARTURE122.100
IMNG (RWY 27)110.100
  PILOT ENTERED AIRPORT INFORMATION SEE ALL PILOT ENTERED AIRPORT INFO

Powered by Virtual Airlines Manager